sensor_id;sensor_type;location;lat;lon;timestamp;P1;durP1;ratioP1;P2;durP2;ratioP2
51298;SDS011;37382;45.192;9.790;2022-11-06T00:01:53;8.35;;;6.68;;
51298;SDS011;37382;45.192;9.790;2022-11-06T00:04:20;8.40;;;5.88;;
51298;SDS011;37382;45.192;9.790;2022-11-06T00:06:48;8.13;;;6.20;;
51298;SDS011;37382;45.192;9.790;2022-11-06T00:09:17;11.70;;;6.53;;
51298;SDS011;37382;45.192;9.790;2022-11-06T00:11:47;13.10;;;7.17;;
51298;SDS011;37382;45.192;9.790;2022-11-06T00:14:16;9.90;;;5.70;;
51298;SDS011;37382;45.192;9.790;2022-11-06T00:16:44;14.23;;;6.40;;
51298;SDS011;37382;45.192;9.790;2022-11-06T00:19:13;6.68;;;5.43;;
51298;SDS011;37382;45.192;9.790;2022-11-06T00:21:41;8.65;;;5.40;;
51298;SDS011;37382;45.192;9.790;2022-11-06T00:24:10;7.60;;;5.50;;
51298;SDS011;37382;45.192;9.790;2022-11-06T00:26:40;7.53;;;6.07;;
51298;SDS011;37382;45.192;9.790;2022-11-06T00:29:11;8.27;;;6.30;;
51298;SDS011;37382;45.192;9.790;2022-11-06T00:31:41;11.90;;;6.47;;
51298;SDS011;37382;45.192;9.790;2022-11-06T00:34:08;15.63;;;6.13;;
51298;SDS011;37382;45.192;9.790;2022-11-06T00:36:36;9.43;;;6.38;;
51298;SDS011;37382;45.192;9.790;2022-11-06T00:39:04;11.07;;;6.68;;
51298;SDS011;37382;45.192;9.790;2022-11-06T00:41:32;8.55;;;7.15;;
51298;SDS011;37382;45.192;9.790;2022-11-06T00:44:00;11.32;;;7.45;;
51298;SDS011;37382;45.192;9.790;2022-11-06T00:46:28;7.90;;;6.97;;
51298;SDS011;37382;45.192;9.790;2022-11-06T00:48:56;9.18;;;6.78;;
51298;SDS011;37382;45.192;9.790;2022-11-06T00:51:31;8.23;;;6.63;;
51298;SDS011;37382;45.192;9.790;2022-11-06T00:54:03;11.38;;;7.28;;
51298;SDS011;37382;45.192;9.790;2022-11-06T00:56:33;8.50;;;7.63;;
51298;SDS011;37382;45.192;9.790;2022-11-06T00:59:01;14.40;;;8.40;;
51298;SDS011;37382;45.192;9.790;2022-11-06T01:01:31;12.82;;;8.65;;
51298;SDS011;37382;45.192;9.790;2022-11-06T01:04:05;15.57;;;8.60;;
51298;SDS011;37382;45.192;9.790;2022-11-06T01:06:40;9.65;;;6.88;;
51298;SDS011;37382;45.192;9.790;2022-11-06T01:09:10;10.25;;;6.78;;
51298;SDS011;37382;45.192;9.790;2022-11-06T01:11:40;16.80;;;7.53;;
51298;SDS011;37382;45.192;9.790;2022-11-06T01:14:29;12.73;;;7.80;;
51298;SDS011;37382;45.192;9.790;2022-11-06T01:16:57;10.95;;;8.50;;
51298;SDS011;37382;45.192;9.790;2022-11-06T01:19:25;12.23;;;8.80;;
51298;SDS011;37382;45.192;9.790;2022-11-06T01:21:53;13.85;;;8.40;;
51298;SDS011;37382;45.192;9.790;2022-11-06T01:24:22;12.82;;;7.93;;
51298;SDS011;37382;45.192;9.790;2022-11-06T01:26:51;8.25;;;6.60;;
51298;SDS011;37382;45.192;9.790;2022-11-06T01:29:39;8.98;;;6.43;;
51298;SDS011;37382;45.192;9.790;2022-11-06T01:32:06;14.20;;;6.70;;
51298;SDS011;37382;45.192;9.790;2022-11-06T01:34:34;9.35;;;6.70;;
51298;SDS011;37382;45.192;9.790;2022-11-06T01:37:01;11.10;;;6.07;;
51298;SDS011;37382;45.192;9.790;2022-11-06T01:39:29;8.23;;;6.45;;
51298;SDS011;37382;45.192;9.790;2022-11-06T01:41:56;12.85;;;7.40;;
51298;SDS011;37382;45.192;9.790;2022-11-06T01:49:58;12.95;;;7.38;;
51298;SDS011;37382;45.192;9.790;2022-11-06T01:52:28;12.68;;;6.85;;
51298;SDS011;37382;45.192;9.790;2022-11-06T01:55:01;9.82;;;6.82;;
51298;SDS011;37382;45.192;9.790;2022-11-06T01:57:34;10.85;;;6.35;;
51298;SDS011;37382;45.192;9.790;2022-11-06T02:00:02;9.00;;;5.75;;
51298;SDS011;37382;45.192;9.790;2022-11-06T02:02:31;10.18;;;6.18;;
51298;SDS011;37382;45.192;9.790;2022-11-06T02:05:00;8.60;;;6.38;;
51298;SDS011;37382;45.192;9.790;2022-11-06T02:07:27;9.32;;;6.20;;
51298;SDS011;37382;45.192;9.790;2022-11-06T02:09:54;9.20;;;6.75;;
51298;SDS011;37382;45.192;9.790;2022-11-06T02:12:26;11.20;;;6.57;;
51298;SDS011;37382;45.192;9.790;2022-11-06T02:21:19;5.60;;;5.00;;
51298;SDS011;37382;45.192;9.790;2022-11-06T02:27:04;9.20;;;5.68;;
51298;SDS011;37382;45.192;9.790;2022-11-06T02:29:48;7.88;;;6.20;;
51298;SDS011;37382;45.192;9.790;2022-11-06T02:35:33;7.32;;;5.47;;
51298;SDS011;37382;45.192;9.790;2022-11-06T02:38:11;6.88;;;5.30;;
51298;SDS011;37382;45.192;9.790;2022-11-06T02:40:48;8.10;;;5.75;;
51298;SDS011;37382;45.192;9.790;2022-11-06T02:43:20;9.45;;;5.97;;
51298;SDS011;37382;45.192;9.790;2022-11-06T02:45:55;9.57;;;5.90;;
51298;SDS011;37382;45.192;9.790;2022-11-06T02:48:29;7.30;;;6.05;;
51298;SDS011;37382;45.192;9.790;2022-11-06T02:51:00;14.48;;;5.90;;
51298;SDS011;37382;45.192;9.790;2022-11-06T02:53:29;8.25;;;6.75;;
51298;SDS011;37382;45.192;9.790;2022-11-06T02:56:02;11.95;;;6.85;;
51298;SDS011;37382;45.192;9.790;2022-11-06T02:58:47;10.27;;;6.97;;
51298;SDS011;37382;45.192;9.790;2022-11-06T03:04:26;10.98;;;7.13;;
51298;SDS011;37382;45.192;9.790;2022-11-06T03:06:58;12.88;;;7.38;;
51298;SDS011;37382;45.192;9.790;2022-11-06T03:09:30;10.88;;;7.55;;
51298;SDS011;37382;45.192;9.790;2022-11-06T03:12:44;10.60;;;7.82;;
51298;SDS011;37382;45.192;9.790;2022-11-06T03:14:59;12.55;;;8.13;;
51298;SDS011;37382;45.192;9.790;2022-11-06T03:23:14;11.98;;;7.55;;
51298;SDS011;37382;45.192;9.790;2022-11-06T03:25:51;12.50;;;7.35;;
51298;SDS011;37382;45.192;9.790;2022-11-06T03:28:24;12.98;;;8.13;;
51298;SDS011;37382;45.192;9.790;2022-11-06T03:30:57;12.52;;;7.65;;
51298;SDS011;37382;45.192;9.790;2022-11-06T03:33:33;11.50;;;7.85;;
51298;SDS011;37382;45.192;9.790;2022-11-06T03:36:16;11.18;;;7.78;;
51298;SDS011;37382;45.192;9.790;2022-11-06T03:38:58;12.45;;;7.80;;
51298;SDS011;37382;45.192;9.790;2022-11-06T03:41:43;11.27;;;7.70;;
51298;SDS011;37382;45.192;9.790;2022-11-06T03:44:15;12.38;;;7.38;;
51298;SDS011;37382;45.192;9.790;2022-11-06T03:46:57;9.75;;;7.60;;
51298;SDS011;37382;45.192;9.790;2022-11-06T03:49:30;11.60;;;7.35;;
51298;SDS011;37382;45.192;9.790;2022-11-06T03:52:08;12.18;;;7.13;;
51298;SDS011;37382;45.192;9.790;2022-11-06T03:54:41;9.32;;;6.65;;
51298;SDS011;37382;45.192;9.790;2022-11-06T03:57:17;10.10;;;6.60;;
51298;SDS011;37382;45.192;9.790;2022-11-06T03:59:51;11.30;;;6.85;;
51298;SDS011;37382;45.192;9.790;2022-11-06T04:02:24;13.38;;;7.57;;
51298;SDS011;37382;45.192;9.790;2022-11-06T04:04:58;9.77;;;7.40;;
51298;SDS011;37382;45.192;9.790;2022-11-06T04:10:00;14.00;;;9.05;;
51298;SDS011;37382;45.192;9.790;2022-11-06T04:12:49;14.48;;;8.50;;
51298;SDS011;37382;45.192;9.790;2022-11-06T04:15:40;12.98;;;8.10;;
51298;SDS011;37382;45.192;9.790;2022-11-06T04:18:16;13.20;;;7.60;;
51298;SDS011;37382;45.192;9.790;2022-11-06T04:20:50;13.95;;;8.65;;
51298;SDS011;37382;45.192;9.790;2022-11-06T04:23:43;9.63;;;7.88;;
51298;SDS011;37382;45.192;9.790;2022-11-06T04:35:30;12.95;;;8.18;;
51298;SDS011;37382;45.192;9.790;2022-11-06T04:38:10;11.07;;;8.43;;
51298;SDS011;37382;45.192;9.790;2022-11-06T04:46:06;12.70;;;7.53;;
51298;SDS011;37382;45.192;9.790;2022-11-06T04:48:37;11.02;;;8.02;;
51298;SDS011;37382;45.192;9.790;2022-11-06T04:51:07;16.75;;;8.02;;
51298;SDS011;37382;45.192;9.790;2022-11-06T04:53:37;13.40;;;8.25;;
51298;SDS011;37382;45.192;9.790;2022-11-06T04:56:08;12.40;;;7.80;;
51298;SDS011;37382;45.192;9.790;2022-11-06T04:58:38;8.75;;;6.63;;
51298;SDS011;37382;45.192;9.790;2022-11-06T05:01:06;30.65;;;7.32;;
51298;SDS011;37382;45.192;9.790;2022-11-06T05:03:34;9.82;;;7.47;;
51298;SDS011;37382;45.192;9.790;2022-11-06T05:06:01;9.40;;;6.82;;
51298;SDS011;37382;45.192;9.790;2022-11-06T05:08:29;9.52;;;6.70;;
51298;SDS011;37382;45.192;9.790;2022-11-06T05:10:56;10.75;;;7.00;;
51298;SDS011;37382;45.192;9.790;2022-11-06T05:13:24;10.18;;;7.05;;
51298;SDS011;37382;45.192;9.790;2022-11-06T05:15:55;9.98;;;7.03;;
51298;SDS011;37382;45.192;9.790;2022-11-06T05:18:24;8.63;;;7.15;;
51298;SDS011;37382;45.192;9.790;2022-11-06T05:20:52;7.53;;;6.05;;
51298;SDS011;37382;45.192;9.790;2022-11-06T05:23:40;9.80;;;6.88;;
51298;SDS011;37382;45.192;9.790;2022-11-06T05:26:07;8.00;;;6.90;;
51298;SDS011;37382;45.192;9.790;2022-11-06T05:28:35;8.63;;;6.57;;
51298;SDS011;37382;45.192;9.790;2022-11-06T05:31:02;11.18;;;6.60;;
51298;SDS011;37382;45.192;9.790;2022-11-06T05:33:30;11.25;;;7.68;;
51298;SDS011;37382;45.192;9.790;2022-11-06T05:36:02;9.00;;;6.63;;
51298;SDS011;37382;45.192;9.790;2022-11-06T05:38:30;11.55;;;7.07;;
51298;SDS011;37382;45.192;9.790;2022-11-06T05:40:59;7.70;;;6.82;;
51298;SDS011;37382;45.192;9.790;2022-11-06T05:43:26;10.68;;;7.13;;
51298;SDS011;37382;45.192;9.790;2022-11-06T05:45:54;8.15;;;6.95;;
51298;SDS011;37382;45.192;9.790;2022-11-06T05:48:32;8.90;;;6.68;;
51298;SDS011;37382;45.192;9.790;2022-11-06T05:51:01;8.52;;;6.65;;
51298;SDS011;37382;45.192;9.790;2022-11-06T05:53:30;9.40;;;7.25;;
51298;SDS011;37382;45.192;9.790;2022-11-06T05:55:58;7.55;;;6.70;;
51298;SDS011;37382;45.192;9.790;2022-11-06T05:58:26;7.95;;;7.10;;
51298;SDS011;37382;45.192;9.790;2022-11-06T06:00:54;10.32;;;6.93;;
51298;SDS011;37382;45.192;9.790;2022-11-06T06:03:21;9.93;;;6.90;;
51298;SDS011;37382;45.192;9.790;2022-11-06T06:05:50;13.48;;;8.00;;
51298;SDS011;37382;45.192;9.790;2022-11-06T06:08:17;10.43;;;8.30;;
51298;SDS011;37382;45.192;9.790;2022-11-06T06:10:45;9.63;;;7.55;;
51298;SDS011;37382;45.192;9.790;2022-11-06T06:13:13;9.40;;;6.30;;
51298;SDS011;37382;45.192;9.790;2022-11-06T06:15:41;9.15;;;6.75;;
51298;SDS011;37382;45.192;9.790;2022-11-06T06:18:11;12.50;;;7.13;;
51298;SDS011;37382;45.192;9.790;2022-11-06T06:20:39;10.20;;;7.18;;
51298;SDS011;37382;45.192;9.790;2022-11-06T06:23:08;9.25;;;6.47;;
51298;SDS011;37382;45.192;9.790;2022-11-06T06:25:36;10.05;;;6.90;;
51298;SDS011;37382;45.192;9.790;2022-11-06T06:28:03;7.93;;;6.43;;
51298;SDS011;37382;45.192;9.790;2022-11-06T06:30:31;8.82;;;6.18;;
51298;SDS011;37382;45.192;9.790;2022-11-06T06:33:03;9.75;;;6.15;;
51298;SDS011;37382;45.192;9.790;2022-11-06T06:35:32;11.20;;;6.78;;
51298;SDS011;37382;45.192;9.790;2022-11-06T06:38:00;7.82;;;6.00;;
51298;SDS011;37382;45.192;9.790;2022-11-06T06:40:28;9.70;;;6.32;;
51298;SDS011;37382;45.192;9.790;2022-11-06T06:42:56;8.70;;;6.38;;
51298;SDS011;37382;45.192;9.790;2022-11-06T06:45:24;7.85;;;5.68;;
51298;SDS011;37382;45.192;9.790;2022-11-06T06:47:52;9.32;;;6.45;;
51298;SDS011;37382;45.192;9.790;2022-11-06T06:50:19;7.57;;;5.72;;
51298;SDS011;37382;45.192;9.790;2022-11-06T06:52:47;7.93;;;5.85;;
51298;SDS011;37382;45.192;9.790;2022-11-06T06:55:14;25.88;;;7.20;;
51298;SDS011;37382;45.192;9.790;2022-11-06T06:57:41;10.63;;;7.88;;
51298;SDS011;37382;45.192;9.790;2022-11-06T07:00:09;19.52;;;11.32;;
51298;SDS011;37382;45.192;9.790;2022-11-06T07:02:36;17.00;;;10.02;;
51298;SDS011;37382;45.192;9.790;2022-11-06T07:05:04;10.30;;;6.72;;
51298;SDS011;37382;45.192;9.790;2022-11-06T07:07:32;11.65;;;6.57;;
51298;SDS011;37382;45.192;9.790;2022-11-06T07:09:59;9.10;;;6.50;;
51298;SDS011;37382;45.192;9.790;2022-11-06T07:12:26;9.65;;;7.15;;
51298;SDS011;37382;45.192;9.790;2022-11-06T07:14:53;13.77;;;6.45;;
51298;SDS011;37382;45.192;9.790;2022-11-06T07:17:21;13.73;;;6.93;;
51298;SDS011;37382;45.192;9.790;2022-11-06T07:19:48;9.55;;;6.72;;
51298;SDS011;37382;45.192;9.790;2022-11-06T07:22:16;12.40;;;6.38;;
51298;SDS011;37382;45.192;9.790;2022-11-06T07:24:55;9.98;;;7.10;;
51298;SDS011;37382;45.192;9.790;2022-11-06T07:27:23;10.93;;;6.50;;
51298;SDS011;37382;45.192;9.790;2022-11-06T07:29:50;7.45;;;5.70;;
51298;SDS011;37382;45.192;9.790;2022-11-06T07:32:18;53.75;;;30.40;;
51298;SDS011;37382;45.192;9.790;2022-11-06T07:34:45;118.63;;;64.15;;
51298;SDS011;37382;45.192;9.790;2022-11-06T07:37:12;11.43;;;7.47;;
51298;SDS011;37382;45.192;9.790;2022-11-06T07:39:40;11.38;;;5.80;;
51298;SDS011;37382;45.192;9.790;2022-11-06T07:42:08;6.97;;;5.57;;
51298;SDS011;37382;45.192;9.790;2022-11-06T07:44:36;11.82;;;7.55;;
51298;SDS011;37382;45.192;9.790;2022-11-06T07:47:04;20.17;;;9.38;;
51298;SDS011;37382;45.192;9.790;2022-11-06T07:49:31;6.82;;;5.47;;
51298;SDS011;37382;45.192;9.790;2022-11-06T07:51:58;8.65;;;6.15;;
51298;SDS011;37382;45.192;9.790;2022-11-06T07:54:26;10.73;;;6.55;;
51298;SDS011;37382;45.192;9.790;2022-11-06T07:56:53;9.65;;;5.97;;
51298;SDS011;37382;45.192;9.790;2022-11-06T07:59:20;7.53;;;6.13;;
51298;SDS011;37382;45.192;9.790;2022-11-06T08:01:48;8.65;;;6.43;;
51298;SDS011;37382;45.192;9.790;2022-11-06T08:04:15;8.35;;;5.95;;
51298;SDS011;37382;45.192;9.790;2022-11-06T08:06:43;8.45;;;6.35;;
51298;SDS011;37382;45.192;9.790;2022-11-06T08:09:10;7.60;;;5.70;;
51298;SDS011;37382;45.192;9.790;2022-11-06T08:11:38;8.70;;;5.80;;
51298;SDS011;37382;45.192;9.790;2022-11-06T08:14:05;12.02;;;6.30;;
51298;SDS011;37382;45.192;9.790;2022-11-06T08:16:32;10.35;;;6.32;;
51298;SDS011;37382;45.192;9.790;2022-11-06T08:18:59;8.52;;;5.95;;
51298;SDS011;37382;45.192;9.790;2022-11-06T08:21:27;7.13;;;5.68;;
51298;SDS011;37382;45.192;9.790;2022-11-06T08:23:55;13.27;;;6.60;;
51298;SDS011;37382;45.192;9.790;2022-11-06T08:26:22;7.85;;;5.40;;
51298;SDS011;37382;45.192;9.790;2022-11-06T08:28:49;8.95;;;6.18;;
51298;SDS011;37382;45.192;9.790;2022-11-06T08:31:17;8.23;;;6.38;;
51298;SDS011;37382;45.192;9.790;2022-11-06T08:33:47;13.63;;;6.38;;
51298;SDS011;37382;45.192;9.790;2022-11-06T08:36:14;8.15;;;5.80;;
51298;SDS011;37382;45.192;9.790;2022-11-06T08:38:42;10.77;;;6.13;;
51298;SDS011;37382;45.192;9.790;2022-11-06T08:41:13;8.57;;;6.45;;
51298;SDS011;37382;45.192;9.790;2022-11-06T08:43:41;8.98;;;5.88;;
51298;SDS011;37382;45.192;9.790;2022-11-06T08:46:09;12.52;;;6.05;;
51298;SDS011;37382;45.192;9.790;2022-11-06T08:48:37;7.45;;;5.82;;
51298;SDS011;37382;45.192;9.790;2022-11-06T08:51:05;16.23;;;6.20;;
51298;SDS011;37382;45.192;9.790;2022-11-06T08:53:33;13.27;;;6.47;;
51298;SDS011;37382;45.192;9.790;2022-11-06T08:56:01;15.10;;;6.10;;
51298;SDS011;37382;45.192;9.790;2022-11-06T08:58:30;8.63;;;5.93;;
51298;SDS011;37382;45.192;9.790;2022-11-06T09:00:57;9.48;;;6.13;;
51298;SDS011;37382;45.192;9.790;2022-11-06T09:03:24;10.10;;;6.50;;
51298;SDS011;37382;45.192;9.790;2022-11-06T09:05:52;10.10;;;6.13;;
51298;SDS011;37382;45.192;9.790;2022-11-06T09:08:20;10.48;;;6.13;;
51298;SDS011;37382;45.192;9.790;2022-11-06T09:10:47;10.00;;;5.80;;
51298;SDS011;37382;45.192;9.790;2022-11-06T09:13:18;8.45;;;6.43;;
51298;SDS011;37382;45.192;9.790;2022-11-06T09:15:45;8.90;;;6.60;;
51298;SDS011;37382;45.192;9.790;2022-11-06T09:18:12;11.13;;;6.40;;
51298;SDS011;37382;45.192;9.790;2022-11-06T09:20:40;7.63;;;6.13;;
51298;SDS011;37382;45.192;9.790;2022-11-06T09:23:08;9.32;;;6.05;;
51298;SDS011;37382;45.192;9.790;2022-11-06T09:25:36;9.18;;;6.15;;
51298;SDS011;37382;45.192;9.790;2022-11-06T09:28:03;6.65;;;5.60;;
51298;SDS011;37382;45.192;9.790;2022-11-06T09:30:31;8.35;;;6.00;;
51298;SDS011;37382;45.192;9.790;2022-11-06T09:33:00;7.47;;;5.80;;
51298;SDS011;37382;45.192;9.790;2022-11-06T09:35:29;8.60;;;5.78;;
51298;SDS011;37382;45.192;9.790;2022-11-06T09:38:01;7.90;;;5.95;;
51298;SDS011;37382;45.192;9.790;2022-11-06T09:40:32;8.85;;;5.88;;
51298;SDS011;37382;45.192;9.790;2022-11-06T09:48:54;10.02;;;5.90;;
51298;SDS011;37382;45.192;9.790;2022-11-06T09:54:25;7.15;;;5.40;;
51298;SDS011;37382;45.192;9.790;2022-11-06T09:57:00;8.50;;;6.15;;
51298;SDS011;37382;45.192;9.790;2022-11-06T09:59:33;8.05;;;5.45;;
51298;SDS011;37382;45.192;9.790;2022-11-06T10:02:08;5.85;;;5.25;;
51298;SDS011;37382;45.192;9.790;2022-11-06T10:07:38;19.63;;;12.93;;
51298;SDS011;37382;45.192;9.790;2022-11-06T10:10:15;12.10;;;6.68;;
51298;SDS011;37382;45.192;9.790;2022-11-06T10:18:45;18.38;;;11.23;;
51298;SDS011;37382;45.192;9.790;2022-11-06T10:24:19;10.32;;;6.20;;
51298;SDS011;37382;45.192;9.790;2022-11-06T10:26:49;9.30;;;6.80;;
51298;SDS011;37382;45.192;9.790;2022-11-06T10:34:48;9.18;;;6.30;;
51298;SDS011;37382;45.192;9.790;2022-11-06T10:37:25;7.40;;;5.82;;
51298;SDS011;37382;45.192;9.790;2022-11-06T10:39:55;9.63;;;6.45;;
51298;SDS011;37382;45.192;9.790;2022-11-06T10:42:30;8.02;;;6.95;;
51298;SDS011;37382;45.192;9.790;2022-11-06T10:45:05;18.85;;;9.32;;
51298;SDS011;37382;45.192;9.790;2022-11-06T10:47:59;7.25;;;6.10;;
51298;SDS011;37382;45.192;9.790;2022-11-06T10:50:41;11.90;;;6.50;;
51298;SDS011;37382;45.192;9.790;2022-11-06T10:56:08;8.73;;;6.13;;
51298;SDS011;37382;45.192;9.790;2022-11-06T10:58:52;9.38;;;6.53;;
51298;SDS011;37382;45.192;9.790;2022-11-06T11:01:20;9.98;;;6.90;;
51298;SDS011;37382;45.192;9.790;2022-11-06T11:03:49;7.80;;;6.70;;
51298;SDS011;37382;45.192;9.790;2022-11-06T11:06:17;9.50;;;6.15;;
51298;SDS011;37382;45.192;9.790;2022-11-06T11:08:46;9.50;;;5.60;;
51298;SDS011;37382;45.192;9.790;2022-11-06T11:13:43;7.07;;;5.82;;
51298;SDS011;37382;45.192;9.790;2022-11-06T11:16:17;8.55;;;5.53;;
51298;SDS011;37382;45.192;9.790;2022-11-06T11:18:46;8.07;;;5.03;;
51298;SDS011;37382;45.192;9.790;2022-11-06T11:21:19;19.52;;;11.32;;
51298;SDS011;37382;45.192;9.790;2022-11-06T11:26:26;8.38;;;5.18;;
51298;SDS011;37382;45.192;9.790;2022-11-06T11:28:57;13.75;;;6.55;;
51298;SDS011;37382;45.192;9.790;2022-11-06T11:31:29;7.43;;;5.40;;
51298;SDS011;37382;45.192;9.790;2022-11-06T11:34:02;5.97;;;4.88;;
51298;SDS011;37382;45.192;9.790;2022-11-06T11:39:15;9.05;;;6.60;;
51298;SDS011;37382;45.192;9.790;2022-11-06T11:41:44;8.23;;;5.97;;
51298;SDS011;37382;45.192;9.790;2022-11-06T11:44:15;9.73;;;5.55;;
51298;SDS011;37382;45.192;9.790;2022-11-06T11:46:46;8.63;;;6.05;;
51298;SDS011;37382;45.192;9.790;2022-11-06T11:49:52;10.98;;;5.60;;
51298;SDS011;37382;45.192;9.790;2022-11-06T11:52:12;11.77;;;6.18;;
51298;SDS011;37382;45.192;9.790;2022-11-06T11:54:51;7.22;;;6.03;;
51298;SDS011;37382;45.192;9.790;2022-11-06T11:57:21;10.90;;;6.93;;
51298;SDS011;37382;45.192;9.790;2022-11-06T12:05:04;13.77;;;8.73;;
51298;SDS011;37382;45.192;9.790;2022-11-06T12:07:42;13.00;;;6.78;;
51298;SDS011;37382;45.192;9.790;2022-11-06T12:10:35;13.55;;;6.93;;
51298;SDS011;37382;45.192;9.790;2022-11-06T12:13:03;10.70;;;7.68;;
51298;SDS011;37382;45.192;9.790;2022-11-06T12:18:22;11.10;;;6.70;;
51298;SDS011;37382;45.192;9.790;2022-11-06T12:23:33;13.60;;;6.65;;
51298;SDS011;37382;45.192;9.790;2022-11-06T12:26:08;9.00;;;6.20;;
51298;SDS011;37382;45.192;9.790;2022-11-06T12:28:38;14.50;;;8.73;;
51298;SDS011;37382;45.192;9.790;2022-11-06T12:31:12;12.18;;;6.05;;
51298;SDS011;37382;45.192;9.790;2022-11-06T12:34:09;12.70;;;7.15;;
51298;SDS011;37382;45.192;9.790;2022-11-06T12:36:48;13.18;;;6.60;;
51298;SDS011;37382;45.192;9.790;2022-11-06T12:39:31;10.68;;;6.50;;
51298;SDS011;37382;45.192;9.790;2022-11-06T12:42:03;9.90;;;7.70;;
51298;SDS011;37382;45.192;9.790;2022-11-06T12:44:37;11.73;;;6.35;;
51298;SDS011;37382;45.192;9.790;2022-11-06T12:47:07;12.80;;;7.13;;
51298;SDS011;37382;45.192;9.790;2022-11-06T13:00:53;8.85;;;6.18;;
51298;SDS011;37382;45.192;9.790;2022-11-06T13:03:34;9.20;;;6.25;;
51298;SDS011;37382;45.192;9.790;2022-11-06T13:06:06;7.53;;;6.25;;
51298;SDS011;37382;45.192;9.790;2022-11-06T13:26:31;10.80;;;7.28;;
51298;SDS011;37382;45.192;9.790;2022-11-06T13:29:11;13.48;;;8.23;;
51298;SDS011;37382;45.192;9.790;2022-11-06T13:34:29;10.32;;;7.35;;
51298;SDS011;37382;45.192;9.790;2022-11-06T13:37:00;12.93;;;8.85;;
51298;SDS011;37382;45.192;9.790;2022-11-06T13:39:33;12.93;;;8.18;;
51298;SDS011;37382;45.192;9.790;2022-11-06T13:42:17;12.25;;;7.55;;
51298;SDS011;37382;45.192;9.790;2022-11-06T13:44:56;11.50;;;7.07;;
51298;SDS011;37382;45.192;9.790;2022-11-06T13:47:27;11.25;;;7.22;;
51298;SDS011;37382;45.192;9.790;2022-11-06T13:50:13;12.40;;;7.65;;
51298;SDS011;37382;45.192;9.790;2022-11-06T13:58:10;16.65;;;8.23;;
51298;SDS011;37382;45.192;9.790;2022-11-06T14:00:54;10.10;;;7.78;;
51298;SDS011;37382;45.192;9.790;2022-11-06T14:06:53;15.65;;;8.48;;
51298;SDS011;37382;45.192;9.790;2022-11-06T14:09:24;14.20;;;8.93;;
51298;SDS011;37382;45.192;9.790;2022-11-06T14:11:57;10.63;;;7.88;;
51298;SDS011;37382;45.192;9.790;2022-11-06T14:14:28;12.53;;;9.40;;
51298;SDS011;37382;45.192;9.790;2022-11-06T14:19:36;12.90;;;8.35;;
51298;SDS011;37382;45.192;9.790;2022-11-06T14:24:44;13.43;;;8.15;;
51298;SDS011;37382;45.192;9.790;2022-11-06T14:40:36;11.48;;;8.38;;
51298;SDS011;37382;45.192;9.790;2022-11-06T14:46:19;15.27;;;8.73;;
51298;SDS011;37382;45.192;9.790;2022-11-06T14:48:50;13.55;;;8.35;;
51298;SDS011;37382;45.192;9.790;2022-11-06T14:51:24;14.43;;;8.88;;
51298;SDS011;37382;45.192;9.790;2022-11-06T14:53:55;14.13;;;8.63;;
51298;SDS011;37382;45.192;9.790;2022-11-06T14:56:25;15.18;;;9.32;;
51298;SDS011;37382;45.192;9.790;2022-11-06T15:01:54;12.90;;;9.05;;
51298;SDS011;37382;45.192;9.790;2022-11-06T15:04:24;14.55;;;9.30;;
51298;SDS011;37382;45.192;9.790;2022-11-06T15:07:02;18.40;;;10.73;;
51298;SDS011;37382;45.192;9.790;2022-11-06T15:12:05;15.93;;;11.82;;
51298;SDS011;37382;45.192;9.790;2022-11-06T15:17:02;61.88;;;38.50;;
51298;SDS011;37382;45.192;9.790;2022-11-06T15:20:04;47.88;;;32.00;;
51298;SDS011;37382;45.192;9.790;2022-11-06T15:22:36;30.67;;;21.75;;
51298;SDS011;37382;45.192;9.790;2022-11-06T15:27:54;42.72;;;26.92;;
51298;SDS011;37382;45.192;9.790;2022-11-06T15:30:26;27.10;;;17.55;;
51298;SDS011;37382;45.192;9.790;2022-11-06T15:32:55;36.83;;;21.27;;
51298;SDS011;37382;45.192;9.790;2022-11-06T15:35:24;40.28;;;28.45;;
51298;SDS011;37382;45.192;9.790;2022-11-06T15:38:03;22.23;;;15.75;;
51298;SDS011;37382;45.192;9.790;2022-11-06T15:40:36;18.80;;;13.45;;
51298;SDS011;37382;45.192;9.790;2022-11-06T15:43:19;20.02;;;12.15;;
51298;SDS011;37382;45.192;9.790;2022-11-06T15:46:01;20.55;;;15.07;;
51298;SDS011;37382;45.192;9.790;2022-11-06T15:48:33;27.35;;;20.02;;
51298;SDS011;37382;45.192;9.790;2022-11-06T15:51:02;51.90;;;38.60;;
51298;SDS011;37382;45.192;9.790;2022-11-06T15:53:46;18.33;;;12.05;;
51298;SDS011;37382;45.192;9.790;2022-11-06T15:56:14;15.40;;;11.55;;
51298;SDS011;37382;45.192;9.790;2022-11-06T15:58:43;16.73;;;10.88;;
51298;SDS011;37382;45.192;9.790;2022-11-06T16:01:11;18.33;;;11.32;;
51298;SDS011;37382;45.192;9.790;2022-11-06T16:03:49;20.48;;;12.73;;
51298;SDS011;37382;45.192;9.790;2022-11-06T16:06:19;21.77;;;13.80;;
51298;SDS011;37382;45.192;9.790;2022-11-06T16:08:47;22.10;;;13.30;;
51298;SDS011;37382;45.192;9.790;2022-11-06T16:11:17;22.77;;;12.65;;
51298;SDS011;37382;45.192;9.790;2022-11-06T16:13:54;19.67;;;13.57;;
51298;SDS011;37382;45.192;9.790;2022-11-06T16:16:44;18.50;;;12.75;;
51298;SDS011;37382;45.192;9.790;2022-11-06T16:21:56;23.90;;;14.10;;
51298;SDS011;37382;45.192;9.790;2022-11-06T16:24:30;21.58;;;12.80;;
51298;SDS011;37382;45.192;9.790;2022-11-06T16:27:21;26.88;;;14.30;;
51298;SDS011;37382;45.192;9.790;2022-11-06T16:29:54;31.45;;;19.80;;
51298;SDS011;37382;45.192;9.790;2022-11-06T16:32:25;31.27;;;19.92;;
51298;SDS011;37382;45.192;9.790;2022-11-06T16:34:55;28.83;;;17.70;;
51298;SDS011;37382;45.192;9.790;2022-11-06T16:39:53;23.70;;;13.25;;
51298;SDS011;37382;45.192;9.790;2022-11-06T16:42:28;16.23;;;11.35;;
51298;SDS011;37382;45.192;9.790;2022-11-06T16:53:17;20.17;;;12.38;;
51298;SDS011;37382;45.192;9.790;2022-11-06T16:58:20;17.77;;;12.23;;
51298;SDS011;37382;45.192;9.790;2022-11-06T17:01:10;22.15;;;12.05;;
51298;SDS011;37382;45.192;9.790;2022-11-06T17:03:48;19.15;;;12.98;;
51298;SDS011;37382;45.192;9.790;2022-11-06T17:06:31;28.80;;;14.98;;
51298;SDS011;37382;45.192;9.790;2022-11-06T17:09:03;25.67;;;16.33;;
51298;SDS011;37382;45.192;9.790;2022-11-06T17:11:53;28.27;;;15.35;;
51298;SDS011;37382;45.192;9.790;2022-11-06T17:14:22;26.08;;;15.25;;
51298;SDS011;37382;45.192;9.790;2022-11-06T17:16:55;22.83;;;14.80;;
51298;SDS011;37382;45.192;9.790;2022-11-06T17:19:25;20.98;;;12.57;;
51298;SDS011;37382;45.192;9.790;2022-11-06T17:21:55;24.38;;;13.80;;
51298;SDS011;37382;45.192;9.790;2022-11-06T17:24:23;17.73;;;12.43;;
51298;SDS011;37382;45.192;9.790;2022-11-06T17:27:03;18.40;;;12.30;;
51298;SDS011;37382;45.192;9.790;2022-11-06T17:29:31;19.05;;;11.50;;
51298;SDS011;37382;45.192;9.790;2022-11-06T17:31:59;22.30;;;11.48;;
51298;SDS011;37382;45.192;9.790;2022-11-06T17:34:26;18.08;;;11.98;;
51298;SDS011;37382;45.192;9.790;2022-11-06T17:36:54;23.10;;;12.27;;
51298;SDS011;37382;45.192;9.790;2022-11-06T17:39:21;30.70;;;18.95;;
51298;SDS011;37382;45.192;9.790;2022-11-06T17:41:49;23.83;;;15.18;;
51298;SDS011;37382;45.192;9.790;2022-11-06T17:44:17;21.50;;;13.63;;
51298;SDS011;37382;45.192;9.790;2022-11-06T17:46:45;69.95;;;34.25;;
51298;SDS011;37382;45.192;9.790;2022-11-06T17:49:14;173.65;;;91.82;;
51298;SDS011;37382;45.192;9.790;2022-11-06T17:51:45;119.60;;;62.95;;
51298;SDS011;37382;45.192;9.790;2022-11-06T17:54:17;40.40;;;21.02;;
51298;SDS011;37382;45.192;9.790;2022-11-06T17:56:46;33.10;;;15.30;;
51298;SDS011;37382;45.192;9.790;2022-11-06T17:59:15;22.83;;;14.45;;
51298;SDS011;37382;45.192;9.790;2022-11-06T18:01:43;22.05;;;16.30;;
51298;SDS011;37382;45.192;9.790;2022-11-06T18:04:13;23.67;;;15.68;;
51298;SDS011;37382;45.192;9.790;2022-11-06T18:06:44;21.80;;;14.90;;